sensor_id;sensor_type;location;lat;lon;timestamp;pressure;altitude;pressure_sealevel;temperature;humidity
76201;BME280;64981;52.930;9.266;2023-04-03T06:54:50;103135.38;;;10.39;41.59
76201;BME280;64981;52.930;9.266;2023-04-03T06:57:22;103142.22;;;11.68;38.92
76201;BME280;64981;52.930;9.266;2023-04-03T06:59:48;103136.78;;;12.40;37.25
76201;BME280;64981;52.930;9.266;2023-04-03T07:02:13;103143.31;;;12.93;36.69
76201;BME280;64981;52.930;9.266;2023-04-03T07:04:39;103148.69;;;12.81;36.25
76201;BME280;64981;52.930;9.266;2023-04-03T07:07:04;103144.03;;;12.95;35.92
76201;BME280;64981;52.930;9.266;2023-04-03T07:09:30;103147.00;;;13.80;34.64
76201;BME280;64981;52.930;9.266;2023-04-03T07:11:56;103151.75;;;12.98;35.67
76201;BME280;64981;52.930;9.266;2023-04-03T07:14:21;103159.22;;;12.00;37.60
76201;BME280;64981;52.930;9.266;2023-04-03T07:16:47;103148.22;;;12.41;36.53
76201;BME280;64981;52.930;9.266;2023-04-03T07:19:13;103156.31;;;11.92;37.03
76201;BME280;64981;52.930;9.266;2023-04-03T07:21:38;103161.63;;;11.30;38.98
76201;BME280;64981;52.930;9.266;2023-04-03T07:24:04;103164.06;;;11.33;38.83
76201;BME280;64981;52.930;9.266;2023-04-03T07:26:30;103174.03;;;11.17;38.78
76201;BME280;64981;52.930;9.266;2023-04-03T07:28:55;103164.56;;;11.51;38.95
76201;BME280;64981;52.930;9.266;2023-04-03T07:31:21;103145.97;;;11.40;37.95
76201;BME280;64981;52.930;9.266;2023-04-03T07:33:47;103174.72;;;11.45;38.86
76201;BME280;64981;52.930;9.266;2023-04-03T07:36:17;103176.09;;;11.63;38.04
76201;BME280;64981;52.930;9.266;2023-04-03T07:38:42;103177.56;;;11.67;38.26
76201;BME280;64981;52.930;9.266;2023-04-03T07:41:14;103170.63;;;12.13;37.59
76201;BME280;64981;52.930;9.266;2023-04-03T07:43:40;103182.16;;;11.27;37.43
76201;BME280;64981;52.930;9.266;2023-04-03T07:46:07;103182.91;;;11.16;38.22
76201;BME280;64981;52.930;9.266;2023-04-03T07:48:34;103181.09;;;11.91;38.20
76201;BME280;64981;52.930;9.266;2023-04-03T07:51:01;103165.13;;;11.44;37.89
76201;BME280;64981;52.930;9.266;2023-04-03T07:53:28;103175.19;;;10.88;38.82
76201;BME280;64981;52.930;9.266;2023-04-03T07:55:53;103174.66;;;11.59;38.30
76201;BME280;64981;52.930;9.266;2023-04-03T07:58:21;103176.66;;;11.30;38.57
76201;BME280;64981;52.930;9.266;2023-04-03T08:00:47;103176.59;;;10.42;40.08
76201;BME280;64981;52.930;9.266;2023-04-03T08:03:14;103175.72;;;10.80;39.32
76201;BME280;64981;52.930;9.266;2023-04-03T08:05:43;103173.78;;;10.70;39.35
76201;BME280;64981;52.930;9.266;2023-04-03T08:08:12;103171.16;;;11.33;37.71
76201;BME280;64981;52.930;9.266;2023-04-03T08:10:38;103174.47;;;11.73;36.75
76201;BME280;64981;52.930;9.266;2023-04-03T08:13:04;103163.81;;;12.57;35.31
76201;BME280;64981;52.930;9.266;2023-04-03T08:15:30;103178.50;;;12.50;35.60
76201;BME280;64981;52.930;9.266;2023-04-03T08:17:58;103169.28;;;11.84;36.12
76201;BME280;64981;52.930;9.266;2023-04-03T08:20:24;103162.75;;;12.70;35.48
76201;BME280;64981;52.930;9.266;2023-04-03T08:22:50;103160.59;;;12.64;34.49
76201;BME280;64981;52.930;9.266;2023-04-03T08:25:15;103165.56;;;12.69;34.21
76201;BME280;64981;52.930;9.266;2023-04-03T08:27:42;103161.66;;;13.30;33.71
76201;BME280;64981;52.930;9.266;2023-04-03T08:30:08;103166.84;;;13.20;33.36
76201;BME280;64981;52.930;9.266;2023-04-03T08:32:35;103168.53;;;12.99;34.43
76201;BME280;64981;52.930;9.266;2023-04-03T08:35:02;103162.19;;;12.78;35.21
76201;BME280;64981;52.930;9.266;2023-04-03T08:37:27;103162.38;;;12.87;34.44
76201;BME280;64981;52.930;9.266;2023-04-03T08:39:53;103163.00;;;12.67;35.38
76201;BME280;64981;52.930;9.266;2023-04-03T08:45:37;103163.31;;;12.86;33.60
76201;BME280;64981;52.930;9.266;2023-04-03T08:48:11;103159.94;;;12.95;33.77
76201;BME280;64981;52.930;9.266;2023-04-03T08:50:43;103157.91;;;13.10;32.92
76201;BME280;64981;52.930;9.266;2023-04-03T08:53:15;103158.03;;;13.53;33.08
76201;BME280;64981;52.930;9.266;2023-04-03T08:55:46;103155.75;;;13.26;32.00
76201;BME280;64981;52.930;9.266;2023-04-03T08:58:18;103156.75;;;14.01;31.39
76201;BME280;64981;52.930;9.266;2023-04-03T09:00:49;103147.22;;;14.51;30.66
76201;BME280;64981;52.930;9.266;2023-04-03T09:03:19;103142.16;;;14.28;30.47
76201;BME280;64981;52.930;9.266;2023-04-03T09:06:06;103153.38;;;15.63;29.37
76201;BME280;64981;52.930;9.266;2023-04-03T09:08:43;103143.69;;;14.51;29.93
76201;BME280;64981;52.930;9.266;2023-04-03T09:11:22;103150.97;;;14.49;30.35
76201;BME280;64981;52.930;9.266;2023-04-03T09:13:59;103140.72;;;14.86;29.79
76201;BME280;64981;52.930;9.266;2023-04-03T09:16:39;103140.03;;;14.63;30.08
76201;BME280;64981;52.930;9.266;2023-04-03T09:19:25;103148.47;;;14.98;29.68
76201;BME280;64981;52.930;9.266;2023-04-03T09:21:57;103133.94;;;15.02;29.65
76201;BME280;64981;52.930;9.266;2023-04-03T09:24:23;103132.81;;;14.75;29.31
76201;BME280;64981;52.930;9.266;2023-04-03T09:27:03;103127.50;;;15.35;29.42
76201;BME280;64981;52.930;9.266;2023-04-03T09:29:35;103135.53;;;15.45;28.62
76201;BME280;64981;52.930;9.266;2023-04-03T09:35:03;103125.38;;;15.98;27.83
76201;BME280;64981;52.930;9.266;2023-04-03T09:37:37;103127.41;;;16.15;27.48
76201;BME280;64981;52.930;9.266;2023-04-03T09:40:05;103132.03;;;16.98;26.80
76201;BME280;64981;52.930;9.266;2023-04-03T09:42:32;103135.22;;;15.88;25.49
76201;BME280;64981;52.930;9.266;2023-04-03T09:45:04;103129.13;;;16.82;26.09
76201;BME280;64981;52.930;9.266;2023-04-03T09:47:33;103132.59;;;17.38;25.42
76201;BME280;64981;52.930;9.266;2023-04-03T09:50:19;103133.91;;;17.25;26.01
76201;BME280;64981;52.930;9.266;2023-04-03T09:52:49;103125.28;;;16.94;26.21
76201;BME280;64981;52.930;9.266;2023-04-03T09:55:24;103114.16;;;16.52;26.00
76201;BME280;64981;52.930;9.266;2023-04-03T09:57:59;103127.88;;;17.23;25.93
76201;BME280;64981;52.930;9.266;2023-04-03T10:00:33;103118.53;;;16.90;25.24
76201;BME280;64981;52.930;9.266;2023-04-03T10:02:59;103120.88;;;17.12;25.58
76201;BME280;64981;52.930;9.266;2023-04-03T10:05:40;103127.63;;;15.93;26.35
76201;BME280;64981;52.930;9.266;2023-04-03T10:08:19;103119.69;;;16.22;25.95
76201;BME280;64981;52.930;9.266;2023-04-03T10:10:47;103113.38;;;15.35;26.65
76201;BME280;64981;52.930;9.266;2023-04-03T10:13:17;103105.84;;;14.89;27.46
76201;BME280;64981;52.930;9.266;2023-04-03T10:18:53;103100.81;;;15.66;27.72
76201;BME280;64981;52.930;9.266;2023-04-03T10:24:36;103101.69;;;15.85;27.03
76201;BME280;64981;52.930;9.266;2023-04-03T10:27:15;103104.06;;;16.27;26.65
76201;BME280;64981;52.930;9.266;2023-04-03T10:32:53;103088.09;;;15.88;25.89
76201;BME280;64981;52.930;9.266;2023-04-03T10:35:35;103089.84;;;15.49;25.94
76201;BME280;64981;52.930;9.266;2023-04-03T10:38:17;103085.44;;;16.07;25.50
76201;BME280;64981;52.930;9.266;2023-04-03T10:40:55;103082.06;;;16.05;26.49
76201;BME280;64981;52.930;9.266;2023-04-03T10:43:44;103084.56;;;15.97;26.82
76201;BME280;64981;52.930;9.266;2023-04-03T10:46:28;103074.75;;;16.17;26.56
76201;BME280;64981;52.930;9.266;2023-04-03T10:49:18;103074.06;;;16.05;26.56
76201;BME280;64981;52.930;9.266;2023-04-03T10:51:57;103072.28;;;16.62;25.79
76201;BME280;64981;52.930;9.266;2023-04-03T10:54:38;103064.38;;;16.14;25.68
76201;BME280;64981;52.930;9.266;2023-04-03T10:57:08;103063.97;;;16.75;25.36
76201;BME280;64981;52.930;9.266;2023-04-03T10:59:45;103063.88;;;17.03;24.94
76201;BME280;64981;52.930;9.266;2023-04-03T11:02:23;103054.47;;;16.90;25.12
76201;BME280;64981;52.930;9.266;2023-04-03T11:04:55;103054.31;;;17.28;25.04
76201;BME280;64981;52.930;9.266;2023-04-03T11:07:27;103047.81;;;17.31;25.69
76201;BME280;64981;52.930;9.266;2023-04-03T11:10:02;103063.66;;;17.42;24.21
76201;BME280;64981;52.930;9.266;2023-04-03T11:12:38;103047.63;;;16.50;24.65
76201;BME280;64981;52.930;9.266;2023-04-03T11:15:13;103054.25;;;15.89;25.54
76201;BME280;64981;52.930;9.266;2023-04-03T11:17:48;103049.34;;;15.84;26.81
76201;BME280;64981;52.930;9.266;2023-04-03T11:20:23;103053.03;;;15.15;26.32
76201;BME280;64981;52.930;9.266;2023-04-03T11:23:01;103042.78;;;14.29;27.64
76201;BME280;64981;52.930;9.266;2023-04-03T11:25:32;103041.88;;;13.23;27.79
76201;BME280;64981;52.930;9.266;2023-04-03T11:28:04;103052.88;;;13.62;29.40
76201;BME280;64981;52.930;9.266;2023-04-03T11:30:43;103043.06;;;13.30;29.79
76201;BME280;64981;52.930;9.266;2023-04-03T11:36:21;103038.34;;;13.34;28.09
76201;BME280;64981;52.930;9.266;2023-04-03T11:38:53;103027.28;;;13.92;27.91
76201;BME280;64981;52.930;9.266;2023-04-03T11:41:27;103030.28;;;14.40;27.74
76201;BME280;64981;52.930;9.266;2023-04-03T11:44:01;103035.81;;;13.43;27.62
76201;BME280;64981;52.930;9.266;2023-04-03T11:46:49;103031.25;;;14.39;28.72
76201;BME280;64981;52.930;9.266;2023-04-03T11:52:54;103029.66;;;14.07;27.30
76201;BME280;64981;52.930;9.266;2023-04-03T11:55:46;103021.63;;;14.18;29.12
76201;BME280;64981;52.930;9.266;2023-04-03T11:58:20;103016.66;;;14.13;28.33
76201;BME280;64981;52.930;9.266;2023-04-03T12:01:08;103018.41;;;14.44;27.79
76201;BME280;64981;52.930;9.266;2023-04-03T12:03:57;103012.28;;;13.71;27.89
76201;BME280;64981;52.930;9.266;2023-04-03T12:06:50;103015.22;;;13.88;27.96
76201;BME280;64981;52.930;9.266;2023-04-03T12:09:33;103014.13;;;13.16;28.90
76201;BME280;64981;52.930;9.266;2023-04-03T12:15:20;103008.50;;;12.98;28.76
76201;BME280;64981;52.930;9.266;2023-04-03T12:17:46;103011.03;;;12.78;29.27
76201;BME280;64981;52.930;9.266;2023-04-03T12:23:33;102998.47;;;12.35;29.69
76201;BME280;64981;52.930;9.266;2023-04-03T12:26:18;102987.25;;;12.32;29.92
76201;BME280;64981;52.930;9.266;2023-04-03T12:28:45;102988.25;;;12.86;29.75
76201;BME280;64981;52.930;9.266;2023-04-03T12:31:12;102990.38;;;13.15;30.73
76201;BME280;64981;52.930;9.266;2023-04-03T12:33:57;102989.03;;;13.20;29.00
76201;BME280;64981;52.930;9.266;2023-04-03T12:36:51;102981.22;;;13.19;28.70
76201;BME280;64981;52.930;9.266;2023-04-03T12:42:39;102989.28;;;12.17;30.54
76201;BME280;64981;52.930;9.266;2023-04-03T12:45:22;102984.31;;;12.13;29.87
76201;BME280;64981;52.930;9.266;2023-04-03T12:47:52;102979.25;;;11.99;30.37
76201;BME280;64981;52.930;9.266;2023-04-03T12:50:30;102979.06;;;12.24;29.82
76201;BME280;64981;52.930;9.266;2023-04-03T12:53:16;102963.78;;;12.50;29.77
76201;BME280;64981;52.930;9.266;2023-04-03T12:55:43;102958.44;;;12.16;29.92
76201;BME280;64981;52.930;9.266;2023-04-03T12:58:23;102958.34;;;12.73;29.90
76201;BME280;64981;52.930;9.266;2023-04-03T13:01:03;102956.66;;;12.94;28.98
76201;BME280;64981;52.930;9.266;2023-04-03T13:03:39;102949.44;;;12.85;29.12
76201;BME280;64981;52.930;9.266;2023-04-03T13:06:06;102947.72;;;12.95;28.64
76201;BME280;64981;52.930;9.266;2023-04-03T13:08:32;102946.44;;;12.90;29.28
76201;BME280;64981;52.930;9.266;2023-04-03T13:11:02;102940.72;;;12.72;28.91
76201;BME280;64981;52.930;9.266;2023-04-03T13:13:29;102935.72;;;12.36;29.60
76201;BME280;64981;52.930;9.266;2023-04-03T13:15:55;102950.03;;;12.89;29.06
76201;BME280;64981;52.930;9.266;2023-04-03T13:18:31;102951.84;;;12.44;30.70
76201;BME280;64981;52.930;9.266;2023-04-03T13:21:04;102952.19;;;12.73;30.56
76201;BME280;64981;52.930;9.266;2023-04-03T13:23:35;102951.72;;;12.90;29.43
76201;BME280;64981;52.930;9.266;2023-04-03T13:26:03;102943.53;;;12.93;29.76
76201;BME280;64981;52.930;9.266;2023-04-03T13:28:31;102943.72;;;13.12;29.44
76201;BME280;64981;52.930;9.266;2023-04-03T13:31:39;102931.06;;;13.05;29.11
76201;BME280;64981;52.930;9.266;2023-04-03T13:33:58;102927.81;;;13.01;28.39
76201;BME280;64981;52.930;9.266;2023-04-03T13:36:33;102926.78;;;12.70;28.94
76201;BME280;64981;52.930;9.266;2023-04-03T13:39:07;102903.09;;;13.32;28.88
76201;BME280;64981;52.930;9.266;2023-04-03T13:41:51;102916.69;;;13.07;29.10
76201;BME280;64981;52.930;9.266;2023-04-03T13:44:28;102919.78;;;12.58;28.29
76201;BME280;64981;52.930;9.266;2023-04-03T13:46:57;102915.16;;;13.05;29.31
76201;BME280;64981;52.930;9.266;2023-04-03T13:49:34;102912.44;;;12.51;29.13
76201;BME280;64981;52.930;9.266;2023-04-03T13:52:40;102922.47;;;12.25;29.93
76201;BME280;64981;52.930;9.266;2023-04-03T13:54:55;102912.56;;;12.05;30.94
76201;BME280;64981;52.930;9.266;2023-04-03T13:57:22;102911.94;;;12.01;31.08
76201;BME280;64981;52.930;9.266;2023-04-03T13:59:48;102909.22;;;12.25;30.64
76201;BME280;64981;52.930;9.266;2023-04-03T14:02:21;102899.06;;;11.85;30.60
76201;BME280;64981;52.930;9.266;2023-04-03T14:04:53;102903.03;;;11.80;30.95
76201;BME280;64981;52.930;9.266;2023-04-03T14:07:23;102905.59;;;12.15;29.30
76201;BME280;64981;52.930;9.266;2023-04-03T14:09:49;102898.56;;;11.91;30.47
76201;BME280;64981;52.930;9.266;2023-04-03T14:14:58;102904.47;;;11.49;30.06
76201;BME280;64981;52.930;9.266;2023-04-03T14:17:26;102896.25;;;11.65;30.80
76201;BME280;64981;52.930;9.266;2023-04-03T14:19:53;102891.81;;;11.65;30.30
76201;BME280;64981;52.930;9.266;2023-04-03T14:22:23;102899.31;;;11.94;30.53
76201;BME280;64981;52.930;9.266;2023-04-03T14:24:50;102897.84;;;11.44;30.71
76201;BME280;64981;52.930;9.266;2023-04-03T14:27:26;102887.59;;;11.74;31.41
76201;BME280;64981;52.930;9.266;2023-04-03T14:29:54;102889.56;;;12.05;30.72
76201;BME280;64981;52.930;9.266;2023-04-03T14:32:22;102897.75;;;12.02;31.04
76201;BME280;64981;52.930;9.266;2023-04-03T14:34:50;102896.78;;;12.14;31.31
76201;BME280;64981;52.930;9.266;2023-04-03T14:37:19;102891.09;;;11.85;31.18
76201;BME280;64981;52.930;9.266;2023-04-03T14:39:47;102886.00;;;11.02;31.77
76201;BME280;64981;52.930;9.266;2023-04-03T14:42:18;102888.38;;;11.52;31.80
76201;BME280;64981;52.930;9.266;2023-04-03T14:44:44;102883.06;;;11.17;32.33
76201;BME280;64981;52.930;9.266;2023-04-03T14:47:12;102879.81;;;10.90;32.08
76201;BME280;64981;52.930;9.266;2023-04-03T14:49:39;102879.25;;;11.21;32.16
76201;BME280;64981;52.930;9.266;2023-04-03T14:52:09;102880.09;;;10.98;32.15
76201;BME280;64981;52.930;9.266;2023-04-03T14:54:41;102879.16;;;10.63;32.52
76201;BME280;64981;52.930;9.266;2023-04-03T14:57:13;102879.78;;;10.66;32.22
76201;BME280;64981;52.930;9.266;2023-04-03T14:59:39;102873.13;;;10.61;32.93
76201;BME280;64981;52.930;9.266;2023-04-03T15:02:26;102879.28;;;10.61;32.62
76201;BME280;64981;52.930;9.266;2023-04-03T15:04:53;102867.22;;;10.57;34.95
76201;BME280;64981;52.930;9.266;2023-04-03T15:07:19;102878.03;;;10.54;34.68
76201;BME280;64981;52.930;9.266;2023-04-03T15:09:45;102869.69;;;10.84;33.32
76201;BME280;64981;52.930;9.266;2023-04-03T15:12:11;102872.25;;;10.73;34.02
76201;BME280;64981;52.930;9.266;2023-04-03T15:14:37;102868.84;;;10.47;34.04
76201;BME280;64981;52.930;9.266;2023-04-03T15:17:04;102866.34;;;10.69;33.92
76201;BME280;64981;52.930;9.266;2023-04-03T15:19:37;102876.72;;;10.60;33.70
76201;BME280;64981;52.930;9.266;2023-04-03T15:22:03;102870.09;;;10.54;34.48
76201;BME280;64981;52.930;9.266;2023-04-03T15:24:29;102865.53;;;10.56;33.57
76201;BME280;64981;52.930;9.266;2023-04-03T15:26:54;102861.28;;;10.30;33.48
76201;BME280;64981;52.930;9.266;2023-04-03T15:29:20;102853.09;;;10.46;33.30
76201;BME280;64981;52.930;9.266;2023-04-03T15:31:45;102863.94;;;9.79;33.21
76201;BME280;64981;52.930;9.266;2023-04-03T15:34:11;102861.16;;;10.31;33.73
76201;BME280;64981;52.930;9.266;2023-04-03T15:36:37;102859.06;;;10.24;34.13
76201;BME280;64981;52.930;9.266;2023-04-03T15:39:02;102850.78;;;10.16;34.63
76201;BME280;64981;52.930;9.266;2023-04-03T15:41:28;102855.97;;;10.17;33.86
76201;BME280;64981;52.930;9.266;2023-04-03T15:43:53;102848.06;;;10.17;34.14
76201;BME280;64981;52.930;9.266;2023-04-03T15:46:19;102846.38;;;9.66;35.21
76201;BME280;64981;52.930;9.266;2023-04-03T15:48:45;102847.97;;;9.94;35.31
76201;BME280;64981;52.930;9.266;2023-04-03T15:51:10;102858.31;;;10.09;35.66
76201;BME280;64981;52.930;9.266;2023-04-03T15:53:36;102853.56;;;9.64;36.14
76201;BME280;64981;52.930;9.266;2023-04-03T15:56:02;102857.91;;;9.77;36.50
76201;BME280;64981;52.930;9.266;2023-04-03T15:58:27;102850.19;;;9.37;36.01
76201;BME280;64981;52.930;9.266;2023-04-03T16:00:53;102858.34;;;9.19;37.31
76201;BME280;64981;52.930;9.266;2023-04-03T16:03:20;102860.38;;;9.29;37.52
76201;BME280;64981;52.930;9.266;2023-04-03T16:05:48;102856.44;;;9.21;37.99
76201;BME280;64981;52.930;9.266;2023-04-03T16:08:15;102848.81;;;8.78;38.20
76201;BME280;64981;52.930;9.266;2023-04-03T16:10:43;102857.00;;;9.00;38.24
76201;BME280;64981;52.930;9.266;2023-04-03T16:13:11;102846.59;;;8.98;36.78
76201;BME280;64981;52.930;9.266;2023-04-03T16:15:37;102848.44;;;8.84;36.75
76201;BME280;64981;52.930;9.266;2023-04-03T16:18:03;102843.44;;;9.06;36.49
76201;BME280;64981;52.930;9.266;2023-04-03T16:20:30;102842.84;;;9.27;36.97
76201;BME280;64981;52.930;9.266;2023-04-03T16:22:59;102837.50;;;9.29;36.32
76201;BME280;64981;52.930;9.266;2023-04-03T16:25:26;102841.06;;;9.28;36.96
76201;BME280;64981;52.930;9.266;2023-04-03T16:27:52;102846.81;;;8.81;36.55
76201;BME280;64981;52.930;9.266;2023-04-03T16:30:17;102842.66;;;9.18;36.66
76201;BME280;64981;52.930;9.266;2023-04-03T16:32:43;102835.09;;;9.39;37.34
76201;BME280;64981;52.930;9.266;2023-04-03T16:35:10;102839.88;;;9.19;37.09
76201;BME280;64981;52.930;9.266;2023-04-03T16:37:36;102835.28;;;8.96;37.47
76201;BME280;64981;52.930;9.266;2023-04-03T16:40:03;102841.03;;;9.15;37.59
76201;BME280;64981;52.930;9.266;2023-04-03T16:42:30;102846.94;;;9.19;37.28
76201;BME280;64981;52.930;9.266;2023-04-03T16:44:56;102846.88;;;8.67;37.21
76201;BME280;64981;52.930;9.266;2023-04-03T16:47:21;102840.13;;;8.90;37.66
76201;BME280;64981;52.930;9.266;2023-04-03T16:49:47;102847.22;;;8.75;37.81
76201;BME280;64981;52.930;9.266;2023-04-03T16:52:13;102844.34;;;8.51;38.22
76201;BME280;64981;52.930;9.266;2023-04-03T16:54:39;102852.91;;;8.55;37.94
76201;BME280;64981;52.930;9.266;2023-04-03T16:57:04;102846.41;;;8.60;38.59
76201;BME280;64981;52.930;9.266;2023-04-03T16:59:30;102853.28;;;8.49;39.03
76201;BME280;64981;52.930;9.266;2023-04-03T17:01:56;102846.47;;;8.59;38.65
76201;BME280;64981;52.930;9.266;2023-04-03T17:04:21;102851.06;;;8.43;39.58
76201;BME280;64981;52.930;9.266;2023-04-03T17:06:47;102848.66;;;8.11;39.39
76201;BME280;64981;52.930;9.266;2023-04-03T17:09:13;102843.00;;;8.03;40.04
76201;BME280;64981;52.930;9.266;2023-04-03T17:11:40;102839.47;;;8.31;39.08
76201;BME280;64981;52.930;9.266;2023-04-03T17:14:06;102843.19;;;8.14;39.87
76201;BME280;64981;52.930;9.266;2023-04-03T17:16:35;102851.06;;;8.00;39.74
76201;BME280;64981;52.930;9.266;2023-04-03T17:19:02;102848.75;;;7.96;40.80
76201;BME280;64981;52.930;9.266;2023-04-03T17:21:28;102854.16;;;7.79;39.94
76201;BME280;64981;52.930;9.266;2023-04-03T17:23:58;102860.25;;;7.65;40.22
76201;BME280;64981;52.930;9.266;2023-04-03T17:26:26;102858.28;;;7.54;40.05
76201;BME280;64981;52.930;9.266;2023-04-03T17:28:52;102853.00;;;7.54;40.46
76201;BME280;64981;52.930;9.266;2023-04-03T17:31:18;102853.50;;;7.75;40.53
76201;BME280;64981;52.930;9.266;2023-04-03T17:33:44;102857.97;;;7.45;40.82
76201;BME280;64981;52.930;9.266;2023-04-03T17:36:10;102868.69;;;7.56;40.29
76201;BME280;64981;52.930;9.266;2023-04-03T17:38:36;102852.88;;;7.42;39.98
76201;BME280;64981;52.930;9.266;2023-04-03T17:41:05;102868.81;;;7.09;40.29
76201;BME280;64981;52.930;9.266;2023-04-03T17:43:32;102855.69;;;6.93;40.78
76201;BME280;64981;52.930;9.266;2023-04-03T17:46:08;102869.31;;;7.16;41.11
76201;BME280;64981;52.930;9.266;2023-04-03T17:48:38;102844.78;;;6.85;41.29
76201;BME280;64981;52.930;9.266;2023-04-03T17:51:09;102875.84;;;7.08;41.07
76201;BME280;64981;52.930;9.266;2023-04-03T17:53:35;102877.75;;;6.91;41.09
76201;BME280;64981;52.930;9.266;2023-04-03T17:56:05;102873.91;;;6.96;41.91
76201;BME280;64981;52.930;9.266;2023-04-03T17:58:31;102876.38;;;6.84;41.53
76201;BME280;64981;52.930;9.266;2023-04-03T18:00:56;102879.00;;;6.68;42.30
76201;BME280;64981;52.930;9.266;2023-04-03T18:03:22;102837.41;;;6.45;41.94
76201;BME280;64981;52.930;9.266;2023-04-03T18:05:48;102885.03;;;6.70;42.11
76201;BME280;64981;52.930;9.266;2023-04-03T18:08:15;102875.59;;;6.35;42.33
76201;BME280;64981;52.930;9.266;2023-04-03T18:10:41;102883.97;;;6.41;42.69
76201;BME280;64981;52.930;9.266;2023-04-03T18:13:08;102874.06;;;6.46;42.87
76201;BME280;64981;52.930;9.266;2023-04-03T18:15:34;102885.31;;;6.17;43.15
76201;BME280;64981;52.930;9.266;2023-04-03T18:18:00;102884.50;;;6.15;42.95
76201;BME280;64981;52.930;9.266;2023-04-03T18:20:25;102892.38;;;6.15;43.51
76201;BME280;64981;52.930;9.266;2023-04-03T18:22:51;102871.63;;;5.95;43.40
76201;BME280;64981;52.930;9.266;2023-04-03T18:25:17;102900.00;;;6.04;43.74
76201;BME280;64981;52.930;9.266;2023-04-03T18:27:45;102884.72;;;5.95;43.42
76201;BME280;64981;52.930;9.266;2023-04-03T18:30:14;102903.16;;;6.11;43.09
76201;BME280;64981;52.930;9.266;2023-04-03T18:32:41;102888.75;;;5.85;43.74
76201;BME280;64981;52.930;9.266;2023-04-03T18:35:07;102900.63;;;5.75;43.75
76201;BME280;64981;52.930;9.266;2023-04-03T18:37:33;102893.94;;;5.52;44.41
76201;BME280;64981;52.930;9.266;2023-04-03T18:39:59;102900.09;;;5.68;44.16
76201;BME280;64981;52.930;9.266;2023-04-03T18:42:26;102900.09;;;5.34;44.72
76201;BME280;64981;52.930;9.266;2023-04-03T18:44:55;102905.56;;;5.46;44.62
76201;BME280;64981;52.930;9.266;2023-04-03T18:47:22;102904.72;;;5.29;44.48
76201;BME280;64981;52.930;9.266;2023-04-03T18:49:47;102886.22;;;4.96;44.55
76201;BME280;64981;52.930;9.266;2023-04-03T18:52:13;102884.81;;;5.25;44.84
76201;BME280;64981;52.930;9.266;2023-04-03T18:54:39;102906.13;;;5.36;45.03
76201;BME280;64981;52.930;9.266;2023-04-03T18:57:05;102906.53;;;5.27;45.70
76201;BME280;64981;52.930;9.266;2023-04-03T18:59:31;102908.41;;;5.25;44.82
76201;BME280;64981;52.930;9.266;2023-04-03T19:01:56;102889.75;;;5.14;44.58
76201;BME280;64981;52.930;9.266;2023-04-03T19:04:23;102896.34;;;5.04;45.41
76201;BME280;64981;52.930;9.266;2023-04-03T19:06:51;102900.88;;;5.00;45.62
76201;BME280;64981;52.930;9.266;2023-04-03T19:09:18;102918.88;;;4.89;45.99
76201;BME280;64981;52.930;9.266;2023-04-03T19:11:43;102921.50;;;4.89;46.13
76201;BME280;64981;52.930;9.266;2023-04-03T19:14:09;102917.47;;;4.82;45.77
76201;BME280;64981;52.930;9.266;2023-04-03T19:16:35;102913.38;;;4.76;47.07
76201;BME280;64981;52.930;9.266;2023-04-03T19:19:00;102901.97;;;4.77;46.73
76201;BME280;64981;52.930;9.266;2023-04-03T19:21:26;102911.38;;;4.81;46.10
76201;BME280;64981;52.930;9.266;2023-04-03T19:23:51;102913.72;;;4.87;45.68
76201;BME280;64981;52.930;9.266;2023-04-03T19:26:18;102917.41;;;4.65;46.59
76201;BME280;64981;52.930;9.266;2023-04-03T19:28:44;102901.91;;;4.60;46.63
76201;BME280;64981;52.930;9.266;2023-04-03T19:31:17;102908.69;;;4.64;46.53
76201;BME280;64981;52.930;9.266;2023-04-03T19:33:43;102910.41;;;4.65;46.85
76201;BME280;64981;52.930;9.266;2023-04-03T19:36:10;102909.63;;;4.45;46.39
76201;BME280;64981;52.930;9.266;2023-04-03T19:38:37;102916.09;;;4.36;46.52
76201;BME280;64981;52.930;9.266;2023-04-03T19:41:05;102915.22;;;4.17;47.07
76201;BME280;64981;52.930;9.266;2023-04-03T19:43:31;102911.94;;;4.12;46.91
76201;BME280;64981;52.930;9.266;2023-04-03T19:45:57;102914.13;;;4.21;47.16
76201;BME280;64981;52.930;9.266;2023-04-03T19:48:23;102918.75;;;3.96;47.30
76201;BME280;64981;52.930;9.266;2023-04-03T19:50:49;102922.78;;;4.23;47.15
76201;BME280;64981;52.930;9.266;2023-04-03T19:53:15;102863.06;;;3.94;47.27
76201;BME280;64981;52.930;9.266;2023-04-03T19:55:45;102906.06;;;3.86;47.76
76201;BME280;64981;52.930;9.266;2023-04-03T19:58:11;102911.06;;;4.11;47.31
76201;BME280;64981;52.930;9.266;2023-04-03T20:00:37;102917.47;;;3.85;47.55
76201;BME280;64981;52.930;9.266;2023-04-03T20:03:02;102915.94;;;4.00;47.92
76201;BME280;64981;52.930;9.266;2023-04-03T20:05:28;102907.38;;;3.97;47.74
76201;BME280;64981;52.930;9.266;2023-04-03T20:07:53;102902.38;;;3.72;48.20
76201;BME280;64981;52.930;9.266;2023-04-03T20:10:20;102915.16;;;3.78;48.87
76201;BME280;64981;52.930;9.266;2023-04-03T20:12:46;102904.97;;;3.72;48.40
76201;BME280;64981;52.930;9.266;2023-04-03T20:15:12;102911.81;;;3.74;47.92
76201;BME280;64981;52.930;9.266;2023-04-03T20:17:37;102912.41;;;3.61;48.72
76201;BME280;64981;52.930;9.266;2023-04-03T20:20:04;102920.44;;;3.76;48.37
76201;BME280;64981;52.930;9.266;2023-04-03T20:22:31;102911.72;;;3.57;48.68
76201;BME280;64981;52.930;9.266;2023-04-03T20:24:57;102912.59;;;3.76;48.51
76201;BME280;64981;52.930;9.266;2023-04-03T20:27:24;102917.44;;;3.65;48.83
76201;BME280;64981;52.930;9.266;2023-04-03T20:29:51;102896.59;;;3.64;49.08
76201;BME280;64981;52.930;9.266;2023-04-03T20:32:17;102918.56;;;3.80;48.91
76201;BME280;64981;52.930;9.266;2023-04-03T20:34:42;102902.81;;;3.41;49.23